バンダルスリブガワン の空港の天気 - METARとTAF

ブルネイ国際空港 ( WBSB / BWN ) - ブルネイ バンダルスリブガワン
飛行場実況気象(Metar)
観測時間06/29 09:30 BNT (06/29 01:30 UTC)
風向・風速南南東 2m/s
視程9000m
天気現象
全天の4割程度の雲 雲底高度 460m
少しの雲 雲底高度 490m
全天の8割程度の雲 雲底高度 9140m
気温30℃
湿度75%
気圧1012hPa
METARWBSB 290130Z 16003KT 9000NW SCT015 FEW016CB BKN300 30/25 Q1012 TEMPO 7000 -SHRA
過去の天気等 Google飛行場航空写真 Wunderground天気予報

過去48時間のMETAR

飛行場予報(TAF)
発表時間: 6/29 07:00 BNT (6/28 23:00 UTC)
予報対象時間: 29日8時 BNT ~ 30日14時 BNT
風向・風速南 3m/s
視程10km以上
少しの雲 雲底高度 460m
少しの積乱雲 雲底高度 490m
29日11時 BNT ~ 29日13時 BNT に徐々に
風向・風速北西 5m/s
全天の4割程度の雲 雲底高度 490m
少しの積乱雲 雲底高度 520m
29日12時 BNT ~ 29日14時 BNT に一時的に
視程7,000m
天気現象弱いしゅう雨
TAF WBSB 282300Z 2900/3006 19005KT 9999 FEW015 FEW016CB
BECMG 2903/2905 32010KT SCT016 FEW017CB
TEMPO 2904/2906 7000 -SHRA